createdAt,value
2023-07-15T00:00:04.084Z,9.744121
2023-07-15T00:01:04.100Z,9.744121
2023-07-15T00:02:04.065Z,9.744121
2023-07-15T00:03:04.122Z,9.744121
2023-07-15T00:04:04.140Z,9.744121
2023-07-15T00:05:04.038Z,9.745105
2023-07-15T00:06:04.037Z,9.744925
2023-07-15T00:07:04.020Z,9.744916
2023-07-15T00:08:04.103Z,9.745725
2023-07-15T00:09:04.023Z,9.745733
2023-07-15T00:10:04.000Z,9.745506
2023-07-15T00:11:04.004Z,9.745282
2023-07-15T00:12:03.993Z,9.745282
2023-07-15T00:13:04.016Z,9.745322
2023-07-15T00:14:03.980Z,9.745557
2023-07-15T00:15:03.965Z,9.745851
2023-07-15T00:16:04.029Z,9.746004
2023-07-15T00:17:03.974Z,9.746004
2023-07-15T00:18:04.034Z,9.746004
2023-07-15T00:19:03.939Z,9.746004
2023-07-15T00:20:03.925Z,9.745678
2023-07-15T00:21:03.919Z,9.745392
2023-07-15T00:22:03.956Z,9.745919
2023-07-15T00:23:04.037Z,9.745612
2023-07-15T00:24:03.897Z,9.745941
2023-07-15T00:25:03.891Z,9.745686
2023-07-15T00:26:03.873Z,9.745391
2023-07-15T00:27:03.897Z,9.744781
2023-07-15T00:28:03.860Z,9.745354
2023-07-15T00:29:03.859Z,9.745042
2023-07-15T00:30:03.855Z,9.745132
2023-07-15T00:31:03.917Z,9.745525
2023-07-15T00:32:03.899Z,9.746430
2023-07-15T00:33:03.904Z,9.746449
2023-07-15T00:34:03.828Z,9.745973
2023-07-15T00:35:03.828Z,9.745840
2023-07-15T00:36:03.839Z,9.745611
2023-07-15T00:37:03.796Z,9.745993
2023-07-15T00:38:03.785Z,9.745892
2023-07-15T00:39:03.775Z,9.745543
2023-07-15T00:40:03.850Z,9.745079
2023-07-15T00:41:03.789Z,9.745351
2023-07-15T00:42:03.769Z,9.745610
2023-07-15T00:43:03.751Z,9.745628
2023-07-15T00:44:03.741Z,9.745537
2023-07-15T00:45:03.768Z,9.745894
2023-07-15T00:46:03.773Z,9.745938
2023-07-15T00:47:03.735Z,9.745272
2023-07-15T00:48:03.783Z,9.745610
2023-07-15T00:49:04.705Z,9.745533
2023-07-15T00:50:03.726Z,9.745463
2023-07-15T00:51:03.710Z,9.745471
2023-07-15T00:52:03.708Z,9.745066
2023-07-15T00:53:03.679Z,9.745303
2023-07-15T00:54:03.667Z,9.745593
2023-07-15T00:55:03.686Z,9.745134
2023-07-15T00:56:03.659Z,9.745075
2023-07-15T00:57:03.646Z,9.745057
2023-07-15T00:58:03.643Z,9.745053
2023-07-15T00:59:03.634Z,9.745238
2023-07-15T01:00:03.642Z,9.745163
2023-07-15T01:01:03.677Z,9.745211
2023-07-15T01:02:03.665Z,9.745469
2023-07-15T01:03:03.703Z,9.745275
2023-07-15T01:04:03.618Z,9.745224
2023-07-15T01:05:03.605Z,9.745496
2023-07-15T01:06:03.578Z,9.745214
2023-07-15T01:07:03.573Z,9.745144
2023-07-15T01:08:03.554Z,9.744637
2023-07-15T01:09:03.571Z,9.745459
2023-07-15T01:10:03.556Z,9.745217
2023-07-15T01:11:03.544Z,9.745297
2023-07-15T01:12:03.524Z,9.745338
2023-07-15T01:13:03.524Z,9.745403
2023-07-15T01:14:03.566Z,9.745716
2023-07-15T01:15:03.513Z,9.745924
2023-07-15T01:16:03.543Z,9.745839
2023-07-15T01:17:03.492Z,9.745618
2023-07-15T01:18:03.500Z,9.745589
2023-07-15T01:19:03.499Z,9.745586
2023-07-15T01:20:03.471Z,9.745444
2023-07-15T01:21:03.464Z,9.745420
2023-07-15T01:22:03.448Z,9.745463
2023-07-15T01:23:03.490Z,9.745547
2023-07-15T01:24:03.424Z,9.745512
2023-07-15T01:25:03.442Z,9.745522
2023-07-15T01:26:03.409Z,9.745476
2023-07-15T01:27:03.405Z,9.745562
2023-07-15T01:28:03.426Z,9.745496
2023-07-15T01:29:03.388Z,9.745549
2023-07-15T01:30:03.370Z,9.745620
2023-07-15T01:31:04.413Z,9.745538
2023-07-15T01:32:03.392Z,9.745520
2023-07-15T01:33:03.422Z,9.745547
2023-07-15T01:34:03.346Z,9.745487
2023-07-15T01:35:03.335Z,9.745465
2023-07-15T01:36:03.330Z,9.745467
2023-07-15T01:37:03.378Z,9.745505
2023-07-15T01:38:03.321Z,9.745695
2023-07-15T01:39:03.312Z,9.745662
2023-07-15T01:40:03.300Z,9.745470
2023-07-15T01:41:03.296Z,9.745521
2023-07-15T01:42:03.308Z,9.745577
2023-07-15T01:43:03.273Z,9.745211
2023-07-15T01:44:03.264Z,9.745355
2023-07-15T01:45:03.267Z,9.745462
2023-07-15T01:46:03.276Z,9.745777
2023-07-15T01:47:03.326Z,9.745627
2023-07-15T01:48:03.277Z,9.745573
2023-07-15T01:49:03.226Z,9.745428
2023-07-15T01:50:03.229Z,9.745095
2023-07-15T01:51:04.250Z,9.745295
2023-07-15T01:52:03.201Z,9.745364
2023-07-15T01:53:03.191Z,9.745459
2023-07-15T01:54:03.187Z,9.745477
2023-07-15T01:55:03.188Z,9.745420
2023-07-15T01:56:03.199Z,9.745553
2023-07-15T01:57:03.170Z,9.745406
2023-07-15T01:58:03.160Z,9.745417
2023-07-15T01:59:03.153Z,9.745551
2023-07-15T02:00:03.174Z,9.745563
2023-07-15T02:01:03.178Z,9.745544
2023-07-15T02:02:03.186Z,9.745609
2023-07-15T02:03:03.197Z,9.745563
2023-07-15T02:04:03.139Z,9.745508
2023-07-15T02:05:03.130Z,9.745490
2023-07-15T02:06:03.123Z,9.745573
2023-07-15T02:07:03.086Z,9.745625
2023-07-15T02:08:03.094Z,9.745498
2023-07-15T02:09:03.074Z,9.745737
2023-07-15T02:10:03.083Z,9.745718
2023-07-15T02:11:03.058Z,9.745734
2023-07-15T02:12:03.049Z,9.745698
2023-07-15T02:13:03.033Z,9.745765
2023-07-15T02:14:03.035Z,9.745662
2023-07-15T02:15:03.053Z,9.745525
2023-07-15T02:16:03.018Z,9.745520
2023-07-15T02:17:03.037Z,9.745630
2023-07-15T02:18:03.029Z,9.745637
2023-07-15T02:19:03.033Z,9.745554
2023-07-15T02:20:03.016Z,9.745647
2023-07-15T02:21:02.970Z,9.745685
2023-07-15T02:22:02.978Z,9.745682
2023-07-15T02:23:03.006Z,9.745652
2023-07-15T02:24:02.974Z,9.745641
2023-07-15T02:25:02.936Z,9.745771
2023-07-15T02:26:02.943Z,9.745750
2023-07-15T02:27:02.924Z,9.745781
2023-07-15T02:28:02.927Z,9.745802
2023-07-15T02:29:02.943Z,9.745707
2023-07-15T02:30:02.915Z,9.745731
2023-07-15T02:31:02.977Z,9.745650
2023-07-15T02:32:03.895Z,9.745826
2023-07-15T02:33:02.954Z,9.745812
2023-07-15T02:34:02.892Z,9.745730
2023-07-15T02:35:02.884Z,9.745869
2023-07-15T02:36:02.851Z,9.745921
2023-07-15T02:37:02.838Z,9.745751
2023-07-15T02:38:02.868Z,9.745672
2023-07-15T02:39:02.832Z,9.745654
2023-07-15T02:40:02.826Z,9.745642
2023-07-15T02:41:02.816Z,9.745553
2023-07-15T02:42:02.810Z,9.745687
2023-07-15T02:43:02.824Z,9.745728
2023-07-15T02:44:02.790Z,9.745913
2023-07-15T02:45:02.784Z,9.745564
2023-07-15T02:46:02.781Z,9.745568
2023-07-15T02:47:02.867Z,9.745628
2023-07-15T02:48:02.822Z,9.745595
2023-07-15T02:49:02.753Z,9.745479
2023-07-15T02:50:02.759Z,9.745768
2023-07-15T02:51:02.744Z,9.745617
2023-07-15T02:52:02.755Z,9.745681
2023-07-15T02:53:02.759Z,9.745579
2023-07-15T02:54:02.713Z,9.745559
2023-07-15T02:55:02.700Z,9.745421
2023-07-15T02:56:02.701Z,9.745467
2023-07-15T02:57:02.767Z,9.745377
2023-07-15T02:58:02.676Z,9.745466
2023-07-15T02:59:02.677Z,9.745712
2023-07-15T03:00:02.661Z,9.745649
2023-07-15T03:01:02.648Z,9.745708
2023-07-15T03:02:02.725Z,9.745584
2023-07-15T03:03:02.689Z,9.745567
2023-07-15T03:04:02.644Z,9.745629
2023-07-15T03:05:02.639Z,9.745510
2023-07-15T03:06:02.644Z,9.745400
2023-07-15T03:07:02.633Z,9.745475
2023-07-15T03:08:02.604Z,9.745347
2023-07-15T03:09:02.598Z,9.745418
2023-07-15T03:10:02.588Z,9.744999
2023-07-15T03:11:02.600Z,9.744754
2023-07-15T03:12:02.571Z,9.745103
2023-07-15T03:13:02.557Z,9.745011
2023-07-15T03:14:02.565Z,9.745039
2023-07-15T03:15:02.555Z,9.745170
2023-07-15T03:16:02.608Z,9.744944
2023-07-15T03:17:02.608Z,9.745227
2023-07-15T03:18:02.613Z,9.745091
2023-07-15T03:19:02.513Z,9.745074
2023-07-15T03:20:03.556Z,9.744949
2023-07-15T03:21:02.527Z,9.745005
2023-07-15T03:22:02.497Z,9.745223
2023-07-15T03:23:02.607Z,9.745268
2023-07-15T03:24:02.477Z,9.745199
2023-07-15T03:25:02.529Z,9.745156
2023-07-15T03:26:02.475Z,9.745515
2023-07-15T03:27:02.460Z,9.745809
2023-07-15T03:28:02.473Z,9.745871
2023-07-15T03:29:02.458Z,9.745820
2023-07-15T03:30:02.468Z,9.745539
2023-07-15T03:31:02.427Z,9.745407
2023-07-15T03:32:02.459Z,9.745423
2023-07-15T03:33:02.456Z,9.745376
2023-07-15T03:34:02.434Z,9.745213
2023-07-15T03:35:02.437Z,9.745412
2023-07-15T03:36:02.391Z,9.745464
2023-07-15T03:37:02.389Z,9.745337
2023-07-15T03:38:02.375Z,9.745430
2023-07-15T03:39:02.392Z,9.744920
2023-07-15T03:40:02.390Z,9.745045
2023-07-15T03:41:02.363Z,9.745505
2023-07-15T03:42:02.347Z,9.745507
2023-07-15T03:43:02.350Z,9.745380
2023-07-15T03:44:02.354Z,9.745358
2023-07-15T03:45:02.336Z,9.745247
2023-07-15T03:46:02.347Z,9.745198
2023-07-15T03:47:02.315Z,9.745271
2023-07-15T03:48:02.347Z,9.745426
2023-07-15T03:49:02.321Z,9.745479
2023-07-15T03:50:02.282Z,9.745438
2023-07-15T03:51:02.274Z,9.745482
2023-07-15T03:52:02.268Z,9.745297
2023-07-15T03:53:02.285Z,9.745381
2023-07-15T03:54:02.293Z,9.745459
2023-07-15T03:55:02.246Z,9.745360
2023-07-15T03:56:02.232Z,9.745472
2023-07-15T03:57:02.228Z,9.745362
2023-07-15T03:58:02.243Z,9.745266
2023-07-15T03:59:02.219Z,9.745052
2023-07-15T04:00:02.214Z,9.744625
2023-07-15T04:01:02.199Z,9.745063
2023-07-15T04:02:02.237Z,9.745141
2023-07-15T04:03:02.234Z,9.744946
2023-07-15T04:04:02.191Z,9.745596
2023-07-15T04:05:02.175Z,9.745452
2023-07-15T04:06:02.159Z,9.745519
2023-07-15T04:07:02.173Z,9.745780
2023-07-15T04:08:02.171Z,9.745677
2023-07-15T04:09:02.148Z,9.745549
2023-07-15T04:10:02.152Z,9.745418
2023-07-15T04:11:02.126Z,9.745115
2023-07-15T04:12:02.152Z,9.745237
2023-07-15T04:13:02.104Z,9.745259
2023-07-15T04:14:02.112Z,9.745195
2023-07-15T04:15:02.095Z,9.745283
2023-07-15T04:16:02.111Z,9.745530
2023-07-15T04:17:02.102Z,9.745204
2023-07-15T04:18:02.113Z,9.745148
2023-07-15T04:19:02.058Z,9.745799
2023-07-15T04:20:02.082Z,9.745969
2023-07-15T04:21:02.098Z,9.745872
2023-07-15T04:22:02.058Z,9.745913
2023-07-15T04:23:02.121Z,9.745959
2023-07-15T04:24:02.050Z,9.745805
2023-07-15T04:25:02.016Z,9.745863
2023-07-15T04:26:02.068Z,9.745836
2023-07-15T04:27:02.001Z,9.745731
2023-07-15T04:28:02.015Z,9.745607
2023-07-15T04:29:01.989Z,9.745612
2023-07-15T04:30:01.994Z,9.745401
2023-07-15T04:31:02.037Z,9.745250
2023-07-15T04:32:01.966Z,9.745479
2023-07-15T04:33:02.011Z,9.745435
2023-07-15T04:34:01.956Z,9.745563
2023-07-15T04:35:01.969Z,9.745511
2023-07-15T04:36:01.954Z,9.745480
2023-07-15T04:37:01.928Z,9.745448
2023-07-15T04:38:01.925Z,9.745300
2023-07-15T04:39:01.906Z,9.745343
2023-07-15T04:40:01.930Z,9.745331
2023-07-15T04:41:01.921Z,9.745217
2023-07-15T04:42:01.895Z,9.745249
2023-07-15T04:43:01.895Z,9.745320
2023-07-15T04:44:01.880Z,9.745265
2023-07-15T04:45:01.894Z,9.745358
2023-07-15T04:46:01.917Z,9.745461
2023-07-15T04:47:01.856Z,9.745495
2023-07-15T04:48:01.884Z,9.745527
2023-07-15T04:49:01.835Z,9.745516
2023-07-15T04:50:01.855Z,9.745562
2023-07-15T04:51:01.818Z,9.745297
2023-07-15T04:52:01.811Z,9.745409
2023-07-15T04:53:01.814Z,9.745477
2023-07-15T04:54:01.846Z,9.745446
2023-07-15T04:55:01.825Z,9.745442
2023-07-15T04:56:01.780Z,9.745508
2023-07-15T04:57:01.776Z,9.745492
2023-07-15T04:58:01.770Z,9.745394
2023-07-15T04:59:01.794Z,9.745594
2023-07-15T05:00:04.961Z,9.745522
2023-07-15T05:01:02.796Z,9.745507
2023-07-15T05:02:01.752Z,9.745632
2023-07-15T05:03:01.734Z,9.745711
2023-07-15T05:04:01.794Z,9.745525
2023-07-15T05:05:01.718Z,9.745559
2023-07-15T05:06:01.796Z,9.745273
2023-07-15T05:07:01.716Z,9.745442
2023-07-15T05:08:01.725Z,9.745596
2023-07-15T05:09:01.734Z,9.745619
2023-07-15T05:10:01.700Z,9.745532
2023-07-15T05:11:01.679Z,9.745656
2023-07-15T05:12:01.696Z,9.745546
2023-07-15T05:13:01.705Z,9.745640
2023-07-15T05:14:01.662Z,9.745504
2023-07-15T05:15:01.666Z,9.745506
2023-07-15T05:16:01.695Z,9.745630
2023-07-15T05:17:01.634Z,9.745770
2023-07-15T05:18:01.716Z,9.745543
2023-07-15T05:19:01.620Z,9.745519
2023-07-15T05:20:01.616Z,9.745535
2023-07-15T05:21:01.626Z,9.745355
2023-07-15T05:22:01.612Z,9.745425
2023-07-15T05:23:01.745Z,9.745456
2023-07-15T05:24:01.600Z,9.745329
2023-07-15T05:25:01.608Z,9.745204
2023-07-15T05:26:01.577Z,9.745395
2023-07-15T05:27:01.612Z,9.745297
2023-07-15T05:28:01.583Z,9.745347
2023-07-15T05:29:01.554Z,9.745405
2023-07-15T05:30:01.575Z,9.745234
2023-07-15T05:31:01.665Z,9.745356
2023-07-15T05:32:01.654Z,9.745490
2023-07-15T05:33:01.597Z,9.745370
2023-07-15T05:34:01.545Z,9.745610
2023-07-15T05:35:01.526Z,9.745765
2023-07-15T05:36:33.462Z,9.745399
2023-07-15T05:37:01.537Z,9.745837
2023-07-15T05:38:01.510Z,9.745740
2023-07-15T05:39:01.501Z,9.745893
2023-07-15T05:40:01.495Z,9.745605
2023-07-15T05:41:01.489Z,9.745527
2023-07-15T05:42:01.507Z,9.745466
2023-07-15T05:43:01.482Z,9.745408
2023-07-15T05:44:01.490Z,9.745684
2023-07-15T05:45:01.464Z,9.745971
2023-07-15T05:46:01.495Z,9.746207
2023-07-15T05:47:01.500Z,9.745618
2023-07-15T05:48:01.472Z,9.745692
2023-07-15T05:49:01.433Z,9.745318
2023-07-15T05:50:01.432Z,9.745256
2023-07-15T05:51:01.458Z,9.744584
2023-07-15T05:52:01.416Z,9.744986
2023-07-15T05:53:01.427Z,9.745306
2023-07-15T05:54:01.412Z,9.745427
2023-07-15T05:55:01.392Z,9.745433
2023-07-15T05:56:01.417Z,9.745744
2023-07-15T05:57:01.394Z,9.745682
2023-07-15T05:58:01.377Z,9.745751
2023-07-15T05:59:01.376Z,9.745686
2023-07-15T06:00:01.390Z,9.745451
2023-07-15T06:01:01.418Z,9.745441
2023-07-15T06:02:01.380Z,9.745545
2023-07-15T06:03:01.405Z,9.745528
2023-07-15T06:04:01.465Z,9.745575
2023-07-15T06:05:01.366Z,9.745577
2023-07-15T06:06:01.349Z,9.745708
2023-07-15T06:07:01.335Z,9.745110
2023-07-15T06:08:01.339Z,9.745666
2023-07-15T06:09:01.315Z,9.744966
2023-07-15T06:10:01.348Z,9.744994
2023-07-15T06:11:01.311Z,9.745483
2023-07-15T06:12:01.311Z,9.745309
2023-07-15T06:13:01.297Z,9.745312
2023-07-15T06:14:01.320Z,9.745327
2023-07-15T06:15:01.306Z,9.745163
2023-07-15T06:16:01.271Z,9.745218
2023-07-15T06:17:01.288Z,9.744980
2023-07-15T06:18:01.349Z,9.745272
2023-07-15T06:19:01.296Z,9.745252
2023-07-15T06:20:01.253Z,9.745326
2023-07-15T06:21:01.251Z,9.745254
2023-07-15T06:22:03.041Z,9.745214
2023-07-15T06:23:01.290Z,9.745365
2023-07-15T06:24:01.247Z,9.745220
2023-07-15T06:25:01.231Z,9.744982
2023-07-15T06:26:01.215Z,9.745022
2023-07-15T06:27:01.303Z,9.745096
2023-07-15T06:28:01.234Z,9.745213
2023-07-15T06:29:01.232Z,9.745111
2023-07-15T06:30:01.192Z,9.745151
2023-07-15T06:31:01.242Z,9.744832
2023-07-15T06:32:01.188Z,9.745327
2023-07-15T06:33:01.387Z,9.745441
2023-07-15T06:34:01.175Z,9.745216
2023-07-15T06:35:01.174Z,9.745339
2023-07-15T06:36:01.158Z,9.745131
2023-07-15T06:37:01.154Z,9.745431
2023-07-15T06:38:01.177Z,9.745216
2023-07-15T06:39:01.170Z,9.745298
2023-07-15T06:40:01.138Z,9.745101
2023-07-15T06:41:01.146Z,9.745239
2023-07-15T06:42:01.157Z,9.745474
2023-07-15T06:43:01.153Z,9.745253
2023-07-15T06:44:01.141Z,9.745261
2023-07-15T06:45:01.155Z,9.745419
2023-07-15T06:46:01.113Z,9.745455
2023-07-15T06:47:01.303Z,9.745582
2023-07-15T06:48:01.169Z,9.745368
2023-07-15T06:49:01.097Z,9.745824
2023-07-15T06:50:01.106Z,9.745223
2023-07-15T06:51:01.126Z,9.745175
2023-07-15T06:52:01.125Z,9.745387
2023-07-15T06:53:01.086Z,9.745511
2023-07-15T06:54:01.069Z,9.745330
2023-07-15T06:55:01.066Z,9.745821
2023-07-15T06:56:13.797Z,9.745321
2023-07-15T06:57:03.098Z,9.745134
2023-07-15T06:58:01.062Z,9.745361
2023-07-15T06:59:01.042Z,9.745270
2023-07-15T07:00:01.038Z,9.745742
2023-07-15T07:01:01.124Z,9.745617
2023-07-15T07:02:01.031Z,9.745709
2023-07-15T07:03:01.117Z,9.745570
2023-07-15T07:04:01.015Z,9.745408
2023-07-15T07:05:01.009Z,9.745428
2023-07-15T07:06:01.036Z,9.745243
2023-07-15T07:07:01.011Z,9.745323
2023-07-15T07:08:00.995Z,9.745442
2023-07-15T07:09:00.980Z,9.745560
2023-07-15T07:10:01.031Z,9.745460
2023-07-15T07:11:01.024Z,9.745561
2023-07-15T07:12:00.994Z,9.745624
2023-07-15T07:13:00.988Z,9.745594
2023-07-15T07:14:00.966Z,9.745470
2023-07-15T07:15:01.016Z,9.745443
2023-07-15T07:16:00.953Z,9.745389
2023-07-15T07:17:00.964Z,9.745347
2023-07-15T07:18:01.025Z,9.745413
2023-07-15T07:19:00.977Z,9.745612
2023-07-15T07:20:03.746Z,9.745541
2023-07-15T07:21:01.964Z,9.745641
2023-07-15T07:22:00.926Z,9.745515
2023-07-15T07:23:00.964Z,9.745514
2023-07-15T07:24:00.917Z,9.745634
2023-07-15T07:25:00.933Z,9.745527
2023-07-15T07:26:00.907Z,9.745637
2023-07-15T07:27:00.912Z,9.745679
2023-07-15T07:28:00.902Z,9.745696
2023-07-15T07:29:00.933Z,9.745756
2023-07-15T07:30:01.909Z,9.745855
2023-07-15T07:31:00.925Z,9.746147
2023-07-15T07:32:00.881Z,9.746194
2023-07-15T07:33:00.909Z,9.746395
2023-07-15T07:34:00.901Z,9.746250
2023-07-15T07:35:00.876Z,9.746048
2023-07-15T07:36:00.859Z,9.746105
2023-07-15T07:37:03.640Z,9.746432
2023-07-15T07:38:00.854Z,9.745908
2023-07-15T07:39:00.886Z,9.745945
2023-07-15T07:40:00.875Z,9.745915
2023-07-15T07:41:00.838Z,9.745640
2023-07-15T07:42:00.834Z,9.745565
2023-07-15T07:43:00.856Z,9.745528
2023-07-15T07:44:00.887Z,9.745711
2023-07-15T07:45:00.825Z,9.745723
2023-07-15T07:46:00.858Z,9.745759
2023-07-15T07:47:00.895Z,9.745761
2023-07-15T07:48:00.922Z,9.745749
2023-07-15T07:49:00.811Z,9.745884
2023-07-15T07:50:00.813Z,9.745900
2023-07-15T07:51:00.804Z,9.745917
2023-07-15T07:52:00.791Z,9.745754
2023-07-15T07:53:00.832Z,9.745723
2023-07-15T07:54:00.801Z,9.745709
2023-07-15T07:55:00.779Z,9.746027
2023-07-15T07:56:00.779Z,9.745987
2023-07-15T07:57:00.803Z,9.745882
2023-07-15T07:58:00.789Z,9.745777
2023-07-15T07:59:00.759Z,9.745763
2023-07-15T08:00:00.768Z,9.745885
2023-07-15T08:01:00.749Z,9.745678
2023-07-15T08:02:00.813Z,9.745440
2023-07-15T08:03:00.856Z,9.745586
2023-07-15T08:04:00.832Z,9.745383
2023-07-15T08:05:00.743Z,9.745539
2023-07-15T08:06:00.739Z,9.745743
2023-07-15T08:07:00.751Z,9.745644
2023-07-15T08:08:00.740Z,9.745654
2023-07-15T08:09:00.727Z,9.745565
2023-07-15T08:10:00.733Z,9.745694
2023-07-15T08:11:00.739Z,9.745749
2023-07-15T08:12:00.792Z,9.745631
2023-07-15T08:13:00.711Z,9.745633
2023-07-15T08:14:00.715Z,9.745650
2023-07-15T08:15:00.698Z,9.745522
2023-07-15T08:16:00.841Z,9.745637
2023-07-15T08:17:00.703Z,9.745365
2023-07-15T08:18:00.726Z,9.745276
2023-07-15T08:19:00.697Z,9.745426
2023-07-15T08:20:00.676Z,9.745455
2023-07-15T08:21:00.693Z,9.745525
2023-07-15T08:22:00.662Z,9.745481
2023-07-15T08:23:00.789Z,9.745497
2023-07-15T08:24:00.659Z,9.745555
2023-07-15T08:25:00.653Z,9.745538
2023-07-15T08:26:00.707Z,9.745624
2023-07-15T08:27:00.644Z,9.745627
2023-07-15T08:28:00.641Z,9.745567
2023-07-15T08:29:00.640Z,9.745609
2023-07-15T08:30:00.657Z,9.745626
2023-07-15T08:31:00.654Z,9.745557
2023-07-15T08:32:00.710Z,9.745571
2023-07-15T08:33:00.688Z,9.745530
2023-07-15T08:34:00.607Z,9.745520
2023-07-15T08:35:00.648Z,9.745502
2023-07-15T08:36:00.601Z,9.745495
2023-07-15T08:37:00.602Z,9.745499
2023-07-15T08:38:00.582Z,9.745604
2023-07-15T08:39:01.619Z,9.745773
2023-07-15T08:40:00.606Z,9.745980
2023-07-15T08:41:00.622Z,9.746278
2023-07-15T08:42:00.573Z,9.745936
2023-07-15T08:43:00.572Z,9.745754
2023-07-15T08:44:00.610Z,9.745666
2023-07-15T08:45:00.577Z,9.745734
2023-07-15T08:46:00.596Z,9.746048
2023-07-15T08:47:01.553Z,9.746058
2023-07-15T08:48:00.566Z,9.745822
2023-07-15T08:49:00.566Z,9.745953
2023-07-15T08:50:00.531Z,9.745550
2023-07-15T08:51:00.526Z,9.745566
2023-07-15T08:52:00.519Z,9.745210
2023-07-15T08:53:00.513Z,9.745283
2023-07-15T08:54:00.587Z,9.745424
2023-07-15T08:55:00.506Z,9.745382
2023-07-15T08:56:00.524Z,9.745461
2023-07-15T08:57:00.489Z,9.745549
2023-07-15T08:58:00.531Z,9.745544
2023-07-15T08:59:00.527Z,9.745568
2023-07-15T09:00:00.515Z,9.745713
2023-07-15T09:01:00.480Z,9.745748
2023-07-15T09:02:00.507Z,9.745476
2023-07-15T09:03:00.547Z,9.745425
2023-07-15T09:04:00.594Z,9.745332
2023-07-15T09:05:00.611Z,9.745452
2023-07-15T09:06:00.449Z,9.745351
2023-07-15T09:07:00.448Z,9.745800
2023-07-15T09:08:00.476Z,9.745589
2023-07-15T09:09:00.433Z,9.745504
2023-07-15T09:10:00.425Z,9.745521
2023-07-15T09:11:00.433Z,9.745703
2023-07-15T09:12:00.485Z,9.745791
2023-07-15T09:13:00.437Z,9.745755
2023-07-15T09:14:00.408Z,9.745741
2023-07-15T09:15:00.441Z,9.745854
2023-07-15T09:16:00.426Z,9.745617
2023-07-15T09:17:00.417Z,9.745309
2023-07-15T09:18:00.465Z,9.745543
2023-07-15T09:19:00.512Z,9.745702
2023-07-15T09:20:00.443Z,9.745541
2023-07-15T09:21:00.374Z,9.745363
2023-07-15T09:22:00.389Z,9.745615
2023-07-15T09:23:00.501Z,9.745826
2023-07-15T09:24:00.354Z,9.745791
2023-07-15T09:25:00.348Z,9.745703
2023-07-15T09:26:00.392Z,9.745764
2023-07-15T09:27:00.374Z,9.745710
2023-07-15T09:28:00.326Z,9.745625
2023-07-15T09:29:00.344Z,9.745671
2023-07-15T09:30:00.324Z,9.745730
2023-07-15T09:31:00.458Z,9.745772
2023-07-15T09:32:01.369Z,9.745941
2023-07-15T09:33:00.331Z,9.745829
2023-07-15T09:34:00.296Z,9.745749
2023-07-15T09:35:00.288Z,9.745782
2023-07-15T09:36:00.312Z,9.745638
2023-07-15T09:37:00.278Z,9.745525
2023-07-15T09:38:00.277Z,9.745615
2023-07-15T09:39:00.285Z,9.745648
2023-07-15T09:40:00.296Z,9.745658
2023-07-15T09:41:00.281Z,9.745737
2023-07-15T09:42:00.246Z,9.745723
2023-07-15T09:43:00.246Z,9.745659
2023-07-15T09:44:00.236Z,9.745581
2023-07-15T09:45:00.300Z,9.745295
2023-07-15T09:46:00.258Z,9.745427
2023-07-15T09:47:00.218Z,9.745572
2023-07-15T09:48:00.260Z,9.745726
2023-07-15T09:49:00.195Z,9.745552
2023-07-15T09:50:00.224Z,9.745363
2023-07-15T09:51:00.195Z,9.745244
2023-07-15T09:52:00.191Z,9.745286
2023-07-15T09:53:00.176Z,9.745526
2023-07-15T09:54:00.200Z,9.745498
2023-07-15T09:55:00.210Z,9.745648
2023-07-15T09:56:00.161Z,9.745680
2023-07-15T09:57:00.181Z,9.745800
2023-07-15T09:58:00.145Z,9.745448
2023-07-15T09:59:00.165Z,9.745444
2023-07-15T10:00:00.140Z,9.745504
2023-07-15T10:01:00.197Z,9.745493
2023-07-15T10:02:00.126Z,9.745614
2023-07-15T10:03:00.146Z,9.745903
2023-07-15T10:04:00.163Z,9.745618
2023-07-15T10:05:00.114Z,9.745535
2023-07-15T10:06:00.090Z,9.745590
2023-07-15T10:07:00.095Z,9.745590
2023-07-15T10:08:00.121Z,9.745576
2023-07-15T10:09:02.792Z,9.745610
2023-07-15T10:10:00.064Z,9.745528
2023-07-15T10:11:00.065Z,9.745495
2023-07-15T10:12:00.061Z,9.745285
2023-07-15T10:13:00.073Z,9.745525
2023-07-15T10:14:00.049Z,9.745452
2023-07-15T10:15:00.041Z,9.745306
2023-07-15T10:16:00.055Z,9.745749
2023-07-15T10:17:00.022Z,9.745575
2023-07-15T10:18:00.075Z,9.745520
2023-07-15T10:19:00.010Z,9.745368
2023-07-15T10:20:00.000Z,9.745602
2023-07-15T10:20:59.999Z,9.745518
2023-07-15T10:22:00.032Z,9.745594
2023-07-15T10:23:00.045Z,9.745742
2023-07-15T10:23:59.970Z,9.745345
2023-07-15T10:24:59.961Z,9.745313
2023-07-15T10:25:59.957Z,9.745419
2023-07-15T10:26:59.972Z,9.745370
2023-07-15T10:27:59.963Z,9.745579
2023-07-15T10:28:59.936Z,9.745566
2023-07-15T10:29:59.934Z,9.745537
2023-07-15T10:31:06.043Z,9.745522
2023-07-15T10:32:02.225Z,9.745387
2023-07-15T10:32:59.943Z,9.745317
2023-07-15T10:33:59.972Z,9.745311
2023-07-15T10:34:59.896Z,9.745495
2023-07-15T10:35:59.887Z,9.745466
2023-07-15T10:36:59.909Z,9.745547
2023-07-15T10:38:01.474Z,9.745623
2023-07-15T10:38:59.869Z,9.745523
2023-07-15T10:39:59.858Z,9.745442
2023-07-15T10:40:59.853Z,9.745534
2023-07-15T10:41:59.870Z,9.745769
2023-07-15T10:42:59.838Z,9.745762
2023-07-15T10:43:59.835Z,9.745492
2023-07-15T10:44:59.820Z,9.745390
2023-07-15T10:45:59.812Z,9.745440
2023-07-15T10:46:59.857Z,9.745494
2023-07-15T10:47:59.860Z,9.745255
2023-07-15T10:48:59.783Z,9.745065
2023-07-15T10:50:00.784Z,9.745194
2023-07-15T10:50:59.807Z,9.745492
2023-07-15T10:51:59.804Z,9.745319
2023-07-15T10:52:59.769Z,9.745522
2023-07-15T10:53:59.756Z,9.745637
2023-07-15T10:54:59.755Z,9.745754
2023-07-15T10:55:59.770Z,9.745661
2023-07-15T10:56:59.740Z,9.745667
2023-07-15T10:57:59.737Z,9.745575
2023-07-15T10:58:59.726Z,9.745457
2023-07-15T10:59:59.758Z,9.745620
2023-07-15T11:00:59.865Z,9.745512
2023-07-15T11:01:59.745Z,9.745385
2023-07-15T11:02:59.772Z,9.745128
2023-07-15T11:03:59.885Z,9.745346
2023-07-15T11:04:59.699Z,9.745233
2023-07-15T11:05:59.758Z,9.745242
2023-07-15T11:06:59.762Z,9.745554
2023-07-15T11:07:59.681Z,9.745507
2023-07-15T11:08:59.660Z,9.745372
2023-07-15T11:09:59.722Z,9.745545
2023-07-15T11:10:59.695Z,9.745708
2023-07-15T11:11:59.652Z,9.745646
2023-07-15T11:12:59.638Z,9.745378
2023-07-15T11:13:59.625Z,9.745221
2023-07-15T11:14:59.643Z,9.745455
2023-07-15T11:15:59.648Z,9.745523
2023-07-15T11:16:59.642Z,9.745401
2023-07-15T11:17:59.773Z,9.745375
2023-07-15T11:18:59.632Z,9.745261
2023-07-15T11:19:59.624Z,9.745515
2023-07-15T11:20:59.608Z,9.745514
2023-07-15T11:21:59.586Z,9.745409
2023-07-15T11:22:59.609Z,9.745249
2023-07-15T11:23:59.668Z,9.745393
2023-07-15T11:24:59.579Z,9.745397
2023-07-15T11:25:59.550Z,9.745450
2023-07-15T11:26:59.543Z,9.745401
2023-07-15T11:27:59.537Z,9.745592
2023-07-15T11:28:59.561Z,9.745590
2023-07-15T11:29:59.518Z,9.745522
2023-07-15T11:30:59.546Z,9.745588
2023-07-15T11:31:59.516Z,9.745579
2023-07-15T11:32:59.526Z,9.745597
2023-07-15T11:33:59.524Z,9.745587
2023-07-15T11:35:01.085Z,9.745536
2023-07-15T11:35:59.486Z,9.745429
2023-07-15T11:36:59.474Z,9.745473
2023-07-15T11:37:59.584Z,9.745543
2023-07-15T11:38:59.485Z,9.745639
2023-07-15T11:39:59.465Z,9.745540
2023-07-15T11:40:59.441Z,9.745648
2023-07-15T11:41:59.474Z,9.745370
2023-07-15T11:42:59.460Z,9.745477
2023-07-15T11:43:59.441Z,9.745770